Time;durP1;ratioP1;P1;durP2;ratioP2;P2;SDS_P1;SDS_P2;PMS_P1;PMS_P2;Temp;Humidity;BMP_temperature;BMP_pressure;BME280_temperature;BME280_humidity;BME280_pressure;Samples;Min_cycle;Max_cycle;Signal;HPM_P1;HPM_P2
2022/12/05 00:00:11;;;;;;;11.35;7.00;;;;;;;-0.21;100.00;92615.41;2140349;27;20030;-76
2022/12/05 00:01:23;;;;;;;13.88;7.43;;;;;;;-0.29;100.00;92611.97;2139947;27;20023;-76
2022/12/05 00:02:24;;;;;;;12.27;7.15;;;;;;;-0.31;100.00;92616.81;2132256;27;20106;-77
2022/12/05 00:03:25;;;;;;;12.40;7.20;;;;;;;-0.27;100.00;92619.47;2114623;28;20031;-75
2022/12/05 00:04:26;;;;;;;10.27;7.13;;;;;;;-0.34;100.00;92616.78;2106103;28;20825;-75
2022/12/05 00:05:27;;;;;;;10.95;7.38;;;;;;;-0.38;100.00;92616.75;2122849;27;20031;-75
2022/12/05 00:06:30;;;;;;;12.48;8.20;;;;;;;-0.43;100.00;92624.94;2131565;27;20023;-75
2022/12/05 00:07:31;;;;;;;17.00;8.25;;;;;;;-0.46;100.00;92628.28;2122308;27;20470;-75
2022/12/05 00:08:32;;;;;;;28.08;7.93;;;;;;;-0.47;100.00;92624.13;2122767;27;20031;-75
2022/12/05 00:09:32;;;;;;;19.92;8.27;;;;;;;-0.49;100.00;92622.97;2131187;27;20110;-75
2022/12/05 00:10:37;;;;;;;14.13;8.02;;;;;;;-0.48;100.00;92621.84;2131790;27;20023;-76
2022/12/05 00:11:41;;;;;;;23.25;8.30;;;;;;;-0.48;100.00;92624.47;2140207;27;20044;-75
2022/12/05 00:12:43;;;;;;;16.67;7.90;;;;;;;-0.54;100.00;92624.81;2139880;27;20110;-75
2022/12/05 00:13:45;;;;;;;31.70;9.73;;;;;;;-0.55;100.00;92627.78;2130809;27;20464;-75
2022/12/05 00:14:46;;;;;;;25.58;8.25;;;;;;;-0.62;100.00;92631.06;2131332;27;20113;-75
2022/12/05 00:15:47;;;;;;;25.55;8.07;;;;;;;-0.60;100.00;92634.13;2131012;27;20469;-76
2022/12/05 00:16:48;;;;;;;26.95;8.70;;;;;;;-0.56;100.00;92634.16;2131394;27;20560;-75
2022/12/05 00:17:49;;;;;;;23.48;8.30;;;;;;;-0.47;100.00;92639.13;2140277;27;20022;-76
2022/12/05 00:18:51;;;;;;;24.08;8.00;;;;;;;-0.54;100.00;92630.06;2131041;27;20038;-77
2022/12/05 00:19:52;;;;;;;30.25;8.13;;;;;;;-0.54;100.00;92630.06;2131426;27;20042;-75
2022/12/05 00:20:53;;;;;;;30.98;8.35;;;;;;;-0.56;100.00;92632.28;2139321;27;20026;-77
2022/12/05 00:21:53;;;;;;;33.03;8.07;;;;;;;-0.53;100.00;92636.06;2122729;27;20110;-76
2022/12/05 00:22:54;;;;;;;32.40;9.10;;;;;;;-0.59;100.00;92643.50;2122448;27;20027;-76
2022/12/05 00:23:56;;;;;;;20.05;6.88;;;;;;;-0.55;100.00;92643.53;2122383;27;20023;-76
2022/12/05 00:24:57;;;;;;;22.80;8.52;;;;;;;-0.54;100.00;92650.28;2122833;27;20027;-76
2022/12/05 00:26:05;;;;;;;20.63;7.65;;;;;;;-0.57;100.00;92651.00;2130792;27;20500;-76
2022/12/05 00:27:06;;;;;;;25.80;7.85;;;;;;;-0.58;100.00;92641.63;2113554;28;20020;-76
2022/12/05 00:28:07;;;;;;;23.67;7.93;;;;;;;-0.56;100.00;92652.53;2099404;28;20066;-76
2022/12/05 00:29:08;;;;;;;18.15;7.75;;;;;;;-0.54;100.00;92652.91;2105549;28;20485;-76
2022/12/05 00:30:09;;;;;;;41.80;8.63;;;;;;;-0.45;100.00;92655.28;2114071;28;20058;-76
2022/12/05 00:31:15;;;;;;;42.35;8.55;;;;;;;-0.39;100.00;92654.63;2113310;28;20028;-76
2022/12/05 00:32:16;;;;;;;38.40;8.20;;;;;;;-0.46;100.00;92664.28;2114774;27;20122;-76
2022/12/05 00:33:17;;;;;;;23.33;7.93;;;;;;;-0.45;100.00;92663.91;2122987;27;20035;-77
2022/12/05 00:34:18;;;;;;;28.63;9.02;;;;;;;-0.46;100.00;92669.53;2124826;27;20051;-76
2022/12/05 00:35:19;;;;;;;30.40;8.48;;;;;;;-0.51;100.00;92663.47;2131555;27;20044;-76
2022/12/05 00:36:23;;;;;;;17.02;8.70;;;;;;;-0.53;100.00;92664.94;2130854;27;20449;-76
2022/12/05 00:37:24;;;;;;;28.75;8.40;;;;;;;-0.59;100.00;92661.88;2122542;27;20034;-76
2022/12/05 00:38:25;;;;;;;20.50;7.88;;;;;;;-0.48;100.00;92663.84;2131254;27;20034;-75
2022/12/05 00:39:26;;;;;;;20.60;7.93;;;;;;;-0.36;100.00;92661.00;2131462;27;20050;-76
2022/12/05 00:40:27;;;;;;;30.85;7.30;;;;;;;-0.35;100.00;92654.63;2122432;27;20035;-76
2022/12/05 00:41:28;;;;;;;20.77;7.22;;;;;;;-0.43;100.00;92658.31;2122414;27;20493;-77
2022/12/05 00:42:29;;;;;;;30.77;7.80;;;;;;;-0.39;100.00;92661.75;2131673;27;20030;-75
2022/12/05 00:43:31;;;;;;;27.67;8.43;;;;;;;-0.35;100.00;92665.13;2131413;27;20528;-76
2022/12/05 00:44:32;;;;;;;40.13;8.93;;;;;;;-0.45;100.00;92658.66;2121627;27;20086;-76
2022/12/05 00:45:33;;;;;;;20.17;7.97;;;;;;;-0.38;100.00;92658.75;2121991;27;20027;-75
2022/12/05 00:46:34;;;;;;;21.60;8.00;;;;;;;-0.31;100.00;92653.59;2121933;27;20023;-75
2022/12/05 00:47:36;;;;;;;26.75;8.77;;;;;;;-0.39;100.00;92657.25;2114035;27;20027;-76
2022/12/05 00:48:37;;;;;;;25.70;8.85;;;;;;;-0.32;100.00;92656.56;2122769;27;20106;-76
2022/12/05 00:49:38;;;;;;;21.05;8.43;;;;;;;-0.45;100.00;92660.53;2122610;27;20110;-77
2022/12/05 00:50:39;;;;;;;48.72;8.88;;;;;;;-0.46;100.00;92651.91;2118402;27;20031;-76
2022/12/05 00:51:42;;;;;;;14.50;7.72;;;;;;;-0.38;100.00;92652.75;2122210;27;20023;-76
2022/12/05 00:52:43;;;;;;;28.40;8.75;;;;;;;-0.13;100.00;92650.38;2130229;27;20051;-76
2022/12/05 00:53:44;;;;;;;52.80;8.48;;;;;;;-0.24;100.00;92652.16;2122450;27;20054;-76
2022/12/05 00:54:46;;;;;;;13.68;7.50;;;;;;;-0.33;100.00;92649.78;2131893;27;20019;-77
2022/12/05 00:55:47;;;;;;;53.80;8.57;;;;;;;-0.37;100.00;92636.63;2140963;27;20022;-76
2022/12/05 00:56:47;;;;;;;72.00;8.50;;;;;;;-0.34;100.00;92648.28;2140521;27;20628;-78
2022/12/05 00:57:48;;;;;;;46.20;9.05;;;;;;;-0.28;100.00;92642.34;2134171;27;20464;-77
2022/12/05 00:58:51;;;;;;;113.78;9.60;;;;;;;-0.35;100.00;92647.53;2132807;27;20764;-76
2022/12/05 00:59:52;;;;;;;86.45;8.70;;;;;;;-0.34;100.00;92643.78;2132157;27;20445;-76
2022/12/05 01:00:53;;;;;;;99.78;8.63;;;;;;;-0.43;100.00;92640.69;2132020;27;20025;-77
2022/12/05 01:01:54;;;;;;;86.97;9.43;;;;;;;-0.34;100.00;92640.41;2131518;27;20390;-77
2022/12/05 01:02:55;;;;;;;131.77;8.95;;;;;;;-0.44;100.00;92635.78;2132491;27;20042;-78
2022/12/05 01:03:57;;;;;;;97.15;9.48;;;;;;;-0.54;100.00;92637.94;2135024;27;20054;-76
2022/12/05 01:04:58;;;;;;;31.20;9.00;;;;;;;-0.49;100.00;92636.09;2135500;27;20026;-76
2022/12/05 01:06:00;;;;;;;70.18;8.68;;;;;;;-0.46;100.00;92644.03;2135392;27;20026;-76
2022/12/05 01:07:01;;;;;;;82.32;9.95;;;;;;;-0.45;100.00;92647.41;2135880;27;20047;-78
2022/12/05 01:08:03;;;;;;;95.78;9.25;;;;;;;-0.49;100.00;92654.47;2123370;27;20019;-77
2022/12/05 01:09:05;;;;;;;96.07;9.73;;;;;;;-0.43;100.00;92663.56;2114447;28;20030;-77
2022/12/05 01:10:08;;;;;;;82.57;8.82;;;;;;;-0.48;100.00;92648.88;2122404;27;20035;-77
2022/12/05 01:11:12;;;;;;;62.83;8.07;;;;;;;-0.48;100.00;92655.97;2131747;27;20015;-74
2022/12/05 01:12:13;;;;;;;75.35;7.28;;;;;;;-0.49;100.00;92659.72;2113967;28;20446;-76
2022/12/05 01:13:14;;;;;;;110.03;8.77;;;;;;;-0.53;100.00;92660.47;2114197;27;20054;-75
2022/12/05 01:14:18;;;;;;;65.75;7.50;;;;;;;-0.48;100.00;92662.00;2131490;27;20030;-76
2022/12/05 01:15:19;;;;;;;121.20;9.40;;;;;;;-0.52;100.00;92664.59;2131457;27;20090;-77
2022/12/05 01:16:29;;;;;;;80.55;7.53;;;;;;;-0.37;100.00;92664.75;2131023;27;20018;-76
2022/12/05 01:17:30;;;;;;;51.65;7.70;;;;;;;-0.43;100.00;92653.81;2131048;27;20033;-77
2022/12/05 01:18:31;;;;;;;53.83;7.22;;;;;;;-0.47;100.00;92660.13;2137176;27;20037;-75
2022/12/05 01:19:33;;;;;;;37.28;7.60;;;;;;;-0.41;100.00;92656.06;2140173;27;20056;-77
2022/12/05 01:20:33;;;;;;;76.07;8.07;;;;;;;-0.42;100.00;92654.56;2140044;27;20375;-76
2022/12/05 01:21:34;;;;;;;115.00;8.85;;;;;;;-0.50;100.00;92651.09;2121989;27;20015;-77
2022/12/05 01:22:35;;;;;;;182.90;8.90;;;;;;;-0.47;100.00;92650.41;2121758;27;20137;-77
2022/12/05 01:23:37;;;;;;;116.03;7.63;;;;;;;-0.47;100.00;92641.75;2121078;27;20421;-76
2022/12/05 01:24:38;;;;;;;71.20;7.82;;;;;;;-0.48;100.00;92641.00;2122302;27;20023;-76
2022/12/05 01:25:40;;;;;;;65.80;7.28;;;;;;;-0.48;100.00;92638.38;2130535;27;20027;-76
2022/12/05 01:26:42;;;;;;;81.70;7.90;;;;;;;-0.46;100.00;92649.28;2122450;27;20342;-76
2022/12/05 01:27:43;;;;;;;102.35;7.95;;;;;;;-0.47;100.00;92647.00;2130502;27;20031;-77
2022/12/05 01:28:44;;;;;;;73.30;8.13;;;;;;;-0.50;100.00;92651.09;2138624;27;20499;-75
2022/12/05 01:29:45;;;;;;;95.70;8.07;;;;;;;-0.53;100.00;92664.94;2131105;27;20104;-76
2022/12/05 01:30:48;;;;;;;95.40;8.07;;;;;;;-0.55;100.00;92675.03;2130987;27;20019;-76
2022/12/05 01:31:49;;;;;;;80.78;7.97;;;;;;;-0.59;100.00;92685.50;2131120;27;20030;-77
2022/12/05 01:32:50;;;;;;;92.30;7.18;;;;;;;-0.60;100.00;92689.22;2131249;27;20023;-77
2022/12/05 01:33:53;;;;;;;143.30;8.30;;;;;;;-0.59;100.00;92697.84;2122061;27;20039;-77
2022/12/05 01:34:54;;;;;;;84.32;8.25;;;;;;;-0.55;100.00;92704.66;2122842;27;20040;-76
2022/12/05 01:35:55;;;;;;;50.20;7.05;;;;;;;-0.55;100.00;92703.91;2131234;27;20455;-76
2022/12/05 01:36:56;;;;;;;92.45;8.05;;;;;;;-0.54;100.00;92708.78;2130532;27;20087;-76
2022/12/05 01:37:57;;;;;;;106.28;7.63;;;;;;;-0.59;100.00;92718.84;2130893;27;20540;-76
2022/12/05 01:38:59;;;;;;;75.90;7.90;;;;;;;-0.49;100.00;92720.84;2130608;27;20019;-78
2022/12/05 01:40:00;;;;;;;50.28;6.18;;;;;;;-0.54;100.00;92719.28;2131543;27;20022;-76
2022/12/05 01:41:03;;;;;;;60.60;6.72;;;;;;;-0.58;100.00;92715.13;2121945;27;20031;-77
2022/12/05 01:42:05;;;;;;;27.63;6.38;;;;;;;-0.48;100.00;92711.09;2113291;28;20022;-76
2022/12/05 01:43:13;;;;;;;36.55;6.45;;;;;;;-0.47;100.00;92708.16;2121526;27;20067;-76
2022/12/05 01:44:15;;;;;;;28.83;6.70;;;;;;;-0.52;100.00;92714.47;2130746;27;20027;-76
2022/12/05 01:45:33;;;;;;;39.13;7.05;;;;;;;-0.41;100.00;92711.22;2136797;27;20138;-77
2022/12/05 01:46:36;;;;;;;63.47;7.93;;;;;;;-0.37;100.00;92710.13;2131147;27;20039;-77
2022/12/05 01:47:37;;;;;;;64.80;6.32;;;;;;;-0.41;100.00;92722.47;2121863;27;20117;-77
2022/12/05 01:48:38;;;;;;;54.28;7.07;;;;;;;-0.45;100.00;92721.66;2121400;27;20142;-76
2022/12/05 01:49:41;;;;;;;24.50;6.47;;;;;;;-0.41;100.00;92722.47;2130142;27;20087;-77
2022/12/05 01:50:43;;;;;;;52.55;7.00;;;;;;;-0.52;100.00;92722.34;2130998;27;20027;-76
2022/12/05 01:51:46;;;;;;;43.35;7.60;;;;;;;-0.53;100.00;92725.31;2121866;27;20027;-77
2022/12/05 01:52:48;;;;;;;45.08;6.53;;;;;;;-0.51;100.00;92715.22;2122380;27;20047;-76
2022/12/05 01:53:49;;;;;;;22.85;7.15;;;;;;;-0.58;100.00;92728.22;2131062;27;20049;-76
2022/12/05 01:54:53;;;;;;;36.92;6.20;;;;;;;-0.55;100.00;92724.91;2130066;27;20075;-77
2022/12/05 01:55:55;;;;;;;28.52;6.32;;;;;;;-0.47;100.00;92721.28;2121499;27;20022;-77
2022/12/05 01:57:09;;;;;;;44.22;6.65;;;;;;;-0.52;100.00;92729.47;2121871;27;20461;-76
2022/12/05 01:58:10;;;;;;;44.00;6.68;;;;;;;-0.54;100.00;92721.16;2121748;27;20015;-77
2022/12/05 01:59:12;;;;;;;39.25;6.72;;;;;;;-0.54;100.00;92726.41;2105859;28;20048;-77
2022/12/05 02:00:18;;;;;;;40.53;6.68;;;;;;;-0.57;100.00;92729.75;2113428;28;20477;-77
2022/12/05 02:01:19;;;;;;;25.88;6.30;;;;;;;-0.53;100.00;92725.31;2114373;27;20685;-75
2022/12/05 02:02:20;;;;;;;36.58;6.60;;;;;;;-0.39;100.00;92716.88;2112935;28;20063;-76
2022/12/05 02:03:22;;;;;;;23.60;5.70;;;;;;;-0.54;100.00;92716.66;2121585;27;20031;-77
2022/12/05 02:04:24;;;;;;;22.77;6.10;;;;;;;-0.58;100.00;92715.88;2130657;27;20520;-76
2022/12/05 02:05:25;;;;;;;29.63;6.20;;;;;;;-0.65;100.00;92718.41;2130711;27;20083;-77
2022/12/05 02:06:26;;;;;;;13.05;5.70;;;;;;;-0.53;100.00;92715.59;2121564;27;20023;-77
2022/12/05 02:07:29;;;;;;;16.55;6.22;;;;;;;-0.48;100.00;92709.25;2121467;27;20030;-76
2022/12/05 02:08:31;;;;;;;9.57;5.82;;;;;;;-0.61;100.00;92716.59;2130037;27;20102;-77
2022/12/05 02:09:32;;;;;;;12.77;6.40;;;;;;;-0.57;100.00;92714.78;2130252;27;20101;-76
2022/12/05 02:10:38;;;;;;;8.35;6.00;;;;;;;-0.58;100.00;92708.00;2130748;27;20035;-75
2022/12/05 02:12:06;;;;;;;8.55;5.82;;;;;;;-0.52;100.00;92708.47;2130886;27;20062;-76
2022/12/05 02:13:33;;;;;;;14.13;6.20;;;;;;;-0.63;100.00;92703.06;2121379;27;20404;-76
2022/12/05 02:17:21;;;;;;;;;;;;;;;-0.69;100.00;92701.09;2147507;27;20535;-76
2022/12/05 02:18:27;;;;;;;9.10;5.15;;;;;;;-0.72;100.00;92691.31;2147163;27;19950;-76
2022/12/05 02:19:51;;;;;;;10.30;5.85;;;;;;;-0.77;100.00;92692.38;2146383;27;20407;-76
2022/12/05 02:21:06;;;;;;;11.00;6.20;;;;;;;-0.73;100.00;92687.94;2145933;27;20063;-76
2022/12/05 02:22:41;;;;;;;12.60;6.60;;;;;;;-0.78;100.00;92683.75;2137525;27;20559;-76
2022/12/05 02:24:13;;;;;;;8.48;5.82;;;;;;;-0.72;100.00;92680.81;2142879;27;20340;-76
2022/12/05 02:25:39;;;;;;;8.52;5.82;;;;;;;-0.78;100.00;92683.00;2145580;27;20022;-76
2022/12/05 02:27:16;;;;;;;9.48;5.88;;;;;;;-0.75;100.00;92687.53;2129516;27;20548;-77
2022/12/05 02:28:55;;;;;;;10.82;6.10;;;;;;;-0.74;100.00;92686.44;2129819;27;20083;-77
2022/12/05 02:30:13;;;;;;;14.20;6.38;;;;;;;-0.72;100.00;92691.31;2140766;27;20070;-76
2022/12/05 02:31:33;;;;;;;9.95;6.10;;;;;;;-0.69;100.00;92690.59;2130160;27;20043;-76
2022/12/05 02:32:37;;;;;;;;;;;;;;;-0.72;100.00;92691.31;2140873;27;20027;-76
2022/12/05 02:33:43;;;;;;;8.23;5.93;;;;;;;-0.73;100.00;92695.81;2146852;27;19910;-76
2022/12/05 02:34:54;;;;;;;24.75;6.40;;;;;;;-0.68;100.00;92702.63;2146786;27;20038;-76
2022/12/05 02:36:03;;;;;;;14.82;6.35;;;;;;;-0.68;100.00;92706.00;2146375;27;20022;-76
2022/12/05 02:37:22;;;;;;;24.02;6.90;;;;;;;-0.67;100.00;92714.63;2139604;27;20022;-76
2022/12/05 02:38:39;;;;;;;17.48;6.38;;;;;;;-0.63;100.00;92710.94;2137706;27;20512;-75
2022/12/05 02:39:42;;;;;;;18.90;6.93;;;;;;;-0.65;100.00;92721.03;2138003;27;20429;-75
2022/12/05 02:41:01;;;;;;;30.88;7.20;;;;;;;-0.65;100.00;92722.91;2138321;27;20010;-75
2022/12/05 02:42:14;;;;;;;60.83;7.35;;;;;;;-0.72;100.00;92722.81;2142788;27;20068;-76
2022/12/05 02:43:29;;;;;;;31.23;6.95;;;;;;;-0.63;100.00;92720.69;2137690;27;20030;-77
2022/12/05 02:44:36;;;;;;;12.27;6.20;;;;;;;-0.55;100.00;92723.03;2130599;27;20107;-76
2022/12/05 02:45:46;;;;;;;29.73;7.22;;;;;;;-0.55;100.00;92712.53;2137533;27;20495;-75
2022/12/05 02:46:51;;;;;;;;;;;;;;;-0.59;100.00;92716.97;2136360;27;20021;-76
2022/12/05 02:47:53;;;;;;;46.20;6.97;;;;;;;-0.57;100.00;92721.88;2120948;27;19915;-75
2022/12/05 02:48:59;;;;;;;34.90;6.65;;;;;;;-0.62;100.00;92722.19;2129200;27;20031;-75
2022/12/05 02:50:00;;;;;;;76.32;9.18;;;;;;;-0.46;100.00;92719.41;2138217;27;20027;-77
2022/12/05 02:51:03;;;;;;;125.13;8.00;;;;;;;-0.55;100.00;92717.03;2145653;27;20022;-77
2022/12/05 02:52:08;;;;;;;66.57;8.52;;;;;;;-0.60;100.00;92720.72;2135073;27;20476;-76
2022/12/05 02:53:14;;;;;;;71.05;8.27;;;;;;;-0.62;100.00;92716.94;2131307;27;20448;-76
2022/12/05 02:54:38;;;;;;;136.35;11.02;;;;;;;-0.46;100.00;92709.66;2130159;27;20057;-75
2022/12/05 02:55:41;;;;;;;42.88;8.15;;;;;;;-0.48;100.00;92718.97;2132909;27;20067;-75
2022/12/05 02:56:44;;;;;;;35.47;7.20;;;;;;;-0.58;100.00;92715.88;2138342;27;20640;-76
2022/12/05 02:57:51;;;;;;;28.27;7.95;;;;;;;-0.54;100.00;92716.66;2137595;27;20471;-75
2022/12/05 02:58:54;;;;;;;67.28;8.35;;;;;;;-0.59;100.00;92716.97;2138009;27;20026;-77
2022/12/05 02:59:55;;;;;;;64.47;8.15;;;;;;;-0.54;100.00;92721.91;2138105;27;20445;-74
2022/12/05 03:00:57;;;;;;;74.10;8.35;;;;;;;-0.62;100.00;92716.94;2137934;27;20471;-74
2022/12/05 03:01:58;;;;;;;35.38;7.30;;;;;;;-0.59;100.00;92718.84;2138094;27;20022;-77
2022/12/05 03:02:59;;;;;;;29.83;7.35;;;;;;;-0.63;100.00;92721.44;2125668;27;20022;-76
2022/12/05 03:04:03;;;;;;;19.38;7.35;;;;;;;-0.60;100.00;92725.97;2120292;27;20080;-76
2022/12/05 03:05:36;;;;;;;27.38;7.45;;;;;;;-0.61;100.00;92726.34;2136919;27;20472;-76
2022/12/05 03:06:50;;;;;;;42.03;7.88;;;;;;;-0.40;100.00;92720.59;2136928;27;20598;-75
2022/12/05 03:07:55;;;;;;;69.15;8.13;;;;;;;-0.46;100.00;92733.28;2138632;27;20058;-76
2022/12/05 03:09:01;;;;;;;57.90;8.00;;;;;;;-0.45;100.00;92720.91;2146680;27;20030;-76
2022/12/05 03:10:06;;;;;;;54.65;8.55;;;;;;;-0.48;100.00;92730.25;2146226;27;20100;-75
2022/12/05 03:11:08;;;;;;;34.33;8.40;;;;;;;-0.47;100.00;92720.53;2141805;27;20023;-75
2022/12/05 03:12:14;;;;;;;43.88;8.15;;;;;;;-0.49;100.00;92723.47;2137998;27;20105;-75
2022/12/05 03:13:25;;;;;;;46.60;8.60;;;;;;;-0.45;100.00;92726.91;2133299;27;20022;-75
2022/12/05 03:14:31;;;;;;;67.55;8.60;;;;;;;-0.55;100.00;92723.03;2130246;27;20069;-75
2022/12/05 03:15:45;;;;;;;59.38;8.70;;;;;;;-0.47;100.00;92723.16;2129455;27;20546;-75
2022/12/05 03:16:52;;;;;;;20.45;8.15;;;;;;;-0.45;100.00;92728.78;2129596;27;20070;-75
2022/12/05 03:18:08;;;;;;;47.50;10.75;;;;;;;-0.51;100.00;92729.09;2138154;27;20532;-75
2022/12/05 03:19:19;;;;;;;41.78;8.25;;;;;;;-0.52;100.00;92730.22;2146621;27;20025;-75
2022/12/05 03:20:32;;;;;;;24.75;8.73;;;;;;;-0.43;100.00;92737.81;2137172;27;20481;-76
2022/12/05 03:21:37;;;;;;;16.33;8.13;;;;;;;-0.47;100.00;92734.41;2139920;27;20029;-76
2022/12/05 03:23:01;;;;;;;15.45;7.88;;;;;;;-0.49;100.00;92731.34;2146385;27;20400;-76
2022/12/05 03:24:07;;;;;;;26.27;9.00;;;;;;;-0.47;100.00;92737.03;2146347;27;20120;-76
2022/12/05 03:25:11;;;;;;;15.55;7.93;;;;;;;-0.40;100.00;92738.97;2146602;27;20090;-76
2022/12/05 03:26:27;;;;;;;21.67;8.45;;;;;;;-0.46;100.00;92735.16;2146547;27;20037;-76
2022/12/05 03:27:42;;;;;;;18.63;8.77;;;;;;;-0.43;100.00;92735.19;2146734;27;20025;-76
2022/12/05 03:28:49;;;;;;;13.50;8.35;;;;;;;-0.42;100.00;92730.72;2125805;27;20045;-77
2022/12/05 03:30:04;;;;;;;11.98;8.70;;;;;;;-0.40;100.00;92731.84;2123679;27;20050;-77
2022/12/05 03:31:12;;;;;;;12.05;8.68;;;;;;;-0.40;100.00;92741.59;2123175;27;20023;-76
2022/12/05 03:32:29;;;;;;;9.52;7.25;;;;;;;-0.41;100.00;92734.84;2125265;27;20031;-75
2022/12/05 03:33:39;;;;;;;11.73;8.20;;;;;;;-0.40;100.00;92734.47;2133444;27;20018;-75
2022/12/05 03:34:56;;;;;;;8.27;6.72;;;;;;;-0.36;100.00;92734.53;2141122;27;20401;-76
2022/12/05 03:36:22;;;;;;;11.20;7.90;;;;;;;-0.40;100.00;92737.09;2140181;27;20030;-75
2022/12/05 03:37:40;;;;;;;10.98;7.78;;;;;;;-0.43;100.00;92734.44;2135453;27;20029;-76
2022/12/05 03:39:24;;;;;;;10.95;8.02;;;;;;;-0.48;100.00;92732.88;2139561;27;20026;-76
2022/12/05 03:40:43;;;;;;;10.63;7.60;;;;;;;-0.27;100.00;92725.25;2105341;28;20039;-75
2022/12/05 03:42:08;;;;;;;10.43;7.37;;;;;;;-0.30;100.00;92727.88;2105008;28;20023;-76
2022/12/05 03:43:53;;;;;;;10.73;8.20;;;;;;;-0.40;100.00;92729.22;2117220;27;20506;-76
2022/12/05 03:45:00;;;;;;;10.48;7.25;;;;;;;-0.32;100.00;92715.06;2095839;28;20128;-76
2022/12/05 03:46:10;;;;;;;9.90;7.30;;;;;;;-0.04;100.00;92719.16;2124705;27;20106;-75
2022/12/05 03:47:23;;;;;;;;;;;;;;;-0.23;100.00;92706.94;2132279;27;20054;-75
2022/12/05 03:48:51;;;;;;;11.00;7.03;;;;;;;-0.36;100.00;92716.16;2122521;27;20489;-75
2022/12/05 03:49:59;;;;;;;9.77;6.90;;;;;;;-0.37;100.00;92712.00;2126785;27;20023;-75
2022/12/05 03:51:03;;;;;;;10.05;7.10;;;;;;;-0.42;100.00;92715.72;2131957;27;20026;-75
2022/12/05 03:52:27;;;;;;;9.25;7.20;;;;;;;-0.41;100.00;92717.22;2132207;27;20134;-76
2022/12/05 03:53:42;;;;;;;9.77;7.38;;;;;;;-0.45;100.00;92718.28;2130945;27;20392;-77
2022/12/05 03:54:48;;;;;;;9.95;7.07;;;;;;;-0.51;100.00;92723.84;2131376;27;20040;-77
2022/12/05 03:55:58;;;;;;;11.05;7.30;;;;;;;-0.55;100.00;92730.16;2128901;27;20029;-75
2022/12/05 03:57:08;;;;;;;10.38;7.80;;;;;;;-0.48;100.00;92732.88;2121244;27;20060;-76
2022/12/05 03:58:22;;;;;;;11.82;8.32;;;;;;;-0.51;100.00;92741.47;2109249;27;20073;-75
2022/12/05 03:59:33;;;;;;;13.18;10.18;;;;;;;-0.47;100.00;92741.53;2124780;27;20027;-75
2022/12/05 04:00:39;;;;;;;13.02;9.13;;;;;;;-0.50;100.00;92735.09;2122179;27;20642;-75
2022/12/05 04:01:42;;;;;;;12.38;8.35;;;;;;;-0.46;100.00;92737.78;2114274;27;20059;-76
2022/12/05 04:02:55;;;;;;;10.18;8.43;;;;;;;-0.44;100.00;92740.78;2123206;27;20062;-76
2022/12/05 04:04:02;;;;;;;10.40;8.70;;;;;;;-0.41;100.00;92743.47;2131798;27;20079;-76
2022/12/05 04:05:09;;;;;;;12.00;8.70;;;;;;;-0.39;100.00;92746.50;2131854;27;20022;-76
2022/12/05 04:06:23;;;;;;;13.32;8.48;;;;;;;-0.34;100.00;92740.19;2140468;27;20030;-76
2022/12/05 04:07:27;;;;;;;13.07;9.13;;;;;;;-0.38;100.00;92744.63;2130758;27;20018;-77
2022/12/05 04:08:33;;;;;;;12.85;8.90;;;;;;;-0.33;100.00;92749.56;2131288;27;20105;-76
2022/12/05 04:09:49;;;;;;;13.20;9.70;;;;;;;-0.39;100.00;92749.13;2140393;27;20041;-76
2022/12/05 04:10:55;;;;;;;13.07;9.38;;;;;;;-0.46;100.00;92745.66;2130577;27;20023;-77
2022/12/05 04:12:01;;;;;;;12.80;9.32;;;;;;;-0.34;100.00;92745.44;2132408;27;20026;-76
2022/12/05 04:13:16;;;;;;;12.45;9.30;;;;;;;-0.41;100.00;92746.09;2131015;27;20019;-77
2022/12/05 04:14:27;;;;;;;11.63;9.35;;;;;;;-0.30;100.00;92738.38;2133528;27;20031;-77
2022/12/05 04:17:02;;;;;;;14.20;9.93;;;;;;;-0.34;100.00;92730.44;2140706;27;20333;-76
2022/12/05 04:17:29;;;;;;;14.93;9.13;;;;;;;-0.29;100.00;92734.63;2131479;27;20484;-76
2022/12/05 04:18:31;;;;;;;16.50;11.32;;;;;;;-0.30;100.00;92741.00;2131370;27;20042;-77
2022/12/05 04:22:18;;;;;;;17.63;12.40;;;;;;;-0.31;100.00;92739.47;2131127;27;20019;-77
2022/12/05 04:23:19;;;;;;;15.57;11.57;;;;;;;-0.32;100.00;92733.44;2131336;27;20374;-76
2022/12/05 04:26:16;;;;;;;14.40;9.43;;;;;;;-0.37;100.00;92736.41;2140092;27;20057;-76
2022/12/05 04:27:34;;;;;;;12.98;9.65;;;;;;;-0.40;100.00;92746.84;2131876;27;20042;-76
2022/12/05 04:28:48;;;;;;;13.75;9.38;;;;;;;-0.40;100.00;92750.22;2131779;27;20033;-77
2022/12/05 04:30:20;;;;;;;14.13;9.57;;;;;;;-0.40;100.00;92744.22;2131683;27;20573;-77
2022/12/05 04:31:25;;;;;;;17.17;9.30;;;;;;;-0.40;100.00;92744.97;2101383;27;20130;-77
2022/12/05 04:32:35;;;;;;;12.65;8.60;;;;;;;-0.34;100.00;92748.06;2131544;27;20474;-78
2022/12/05 04:33:45;;;;;;;15.10;9.95;;;;;;;-0.27;100.00;92753.41;2140045;27;20030;-77
2022/12/05 04:34:54;;;;;;;14.55;9.23;;;;;;;-0.25;100.00;92745.94;2140116;27;20026;-76
2022/12/05 04:36:07;;;;;;;15.25;9.52;;;;;;;-0.19;100.00;92751.63;2132215;27;20068;-76
2022/12/05 04:37:15;;;;;;;13.95;9.60;;;;;;;-0.30;100.00;92756.75;2123151;27;20033;-76
2022/12/05 04:38:25;;;;;;;14.10;9.23;;;;;;;-0.29;100.00;92755.63;2130678;27;20120;-76
2022/12/05 04:39:32;;;;;;;13.57;9.65;;;;;;;-0.32;100.00;92753.72;2121413;27;20080;-77
2022/12/05 04:40:40;;;;;;;18.17;10.07;;;;;;;-0.31;100.00;92763.09;2122884;27;20091;-76
2022/12/05 04:41:56;;;;;;;14.27;9.50;;;;;;;-0.31;100.00;92771.75;2131310;27;20109;-77
2022/12/05 04:42:59;;;;;;;19.92;11.05;;;;;;;-0.30;100.00;92773.25;2132045;27;20065;-77
2022/12/05 04:44:06;;;;;;;17.05;10.70;;;;;;;-0.15;100.00;92765.56;2131239;27;20054;-78
2022/12/05 04:45:10;;;;;;;12.73;9.88;;;;;;;-0.24;100.00;92778.19;2124187;27;20038;-78
2022/12/05 04:46:15;;;;;;;14.80;10.73;;;;;;;-0.24;100.00;92783.44;2123919;27;20027;-77
2022/12/05 04:47:20;;;;;;;14.73;9.60;;;;;;;-0.27;100.00;92787.53;2131840;27;20533;-78
2022/12/05 04:48:26;;;;;;;15.50;9.35;;;;;;;-0.20;100.00;92792.13;2141441;27;20042;-77
2022/12/05 04:49:31;;;;;;;13.63;9.85;;;;;;;-0.26;100.00;92799.56;2131580;27;20026;-78
2022/12/05 04:50:34;;;;;;;13.65;9.95;;;;;;;-0.26;100.00;92800.31;2129106;27;20045;-77
2022/12/05 04:51:37;;;;;;;13.43;10.05;;;;;;;-0.25;100.00;92801.06;2122388;27;20338;-77
2022/12/05 04:52:39;;;;;;;13.00;9.38;;;;;;;-0.26;100.00;92802.19;2122628;27;20034;-77
2022/12/05 04:53:43;;;;;;;13.95;9.82;;;;;;;-0.27;100.00;92809.28;2132168;27;20811;-78
2022/12/05 04:54:56;;;;;;;13.88;9.93;;;;;;;-0.30;100.00;92809.28;2123084;27;20031;-78
2022/12/05 04:55:59;;;;;;;13.90;8.77;;;;;;;-0.20;100.00;92806.03;2116421;27;20453;-78
2022/12/05 04:57:23;;;;;;;15.20;11.40;;;;;;;-0.23;100.00;92811.22;2122564;27;20027;-79
2022/12/05 04:58:26;;;;;;;15.02;10.35;;;;;;;-0.29;100.00;92811.53;2131019;27;20109;-77
2022/12/05 04:59:28;;;;;;;14.77;11.35;;;;;;;-0.25;100.00;92811.59;2131186;27;20034;-77
2022/12/05 05:00:31;;;;;;;15.23;11.23;;;;;;;-0.25;100.00;92803.72;2134600;27;20057;-77
2022/12/05 05:01:42;;;;;;;13.30;9.50;;;;;;;-0.12;100.00;92812.13;2139965;27;20475;-78
2022/12/05 05:02:59;;;;;;;13.60;8.88;;;;;;;-0.14;100.00;92801.97;2139410;27;20464;-77
2022/12/05 05:04:11;;;;;;;14.40;9.05;;;;;;;-0.17;100.00;92807.94;2121828;27;20449;-78
2022/12/05 05:05:17;;;;;;;11.65;8.52;;;;;;;-0.16;100.00;92798.94;2125283;27;20523;-78
2022/12/05 05:06:18;;;;;;;13.13;10.10;;;;;;;-0.23;100.00;92795.47;2140046;27;20122;-78
2022/12/05 05:07:20;;;;;;;12.02;8.95;;;;;;;-0.22;100.00;92795.13;2140014;27;20026;-78
2022/12/05 05:08:26;;;;;;;11.68;9.77;;;;;;;-0.15;100.00;92795.19;2132366;27;20054;-77
2022/12/05 05:09:27;;;;;;;11.90;8.85;;;;;;;-0.17;100.00;92794.06;2131370;27;20027;-78
2022/12/05 05:10:43;;;;;;;14.00;9.02;;;;;;;-0.24;100.00;92792.09;2122035;27;20122;-81
2022/12/05 05:11:44;;;;;;;11.77;8.68;;;;;;;-0.20;100.00;92792.88;2113098;27;20070;-78
2022/12/05 05:12:45;;;;;;;12.38;10.00;;;;;;;-0.30;100.00;92802.16;2113164;28;20461;-77
2022/12/05 05:13:46;;;;;;;24.25;16.65;;;;;;;-0.25;100.00;92798.44;2113610;28;20445;-78
2022/12/05 05:14:47;;;;;;;25.45;17.25;;;;;;;-0.23;100.00;92798.84;2122258;27;20029;-76